Skip Navigation Links
NOAA logo - Click to go to the NOAA homepage
NOAA's National Weather Service
Alaska Aviation Weather Unit
  NWS logo - Click to go to the NWS homepage
Left Navbar Graphic     19 AKDT = 03 GMT

   
NOAA is celebrating 200 years of science, service, and stewardship. Visit the NOAA 200th celebration Web site to learn more.
USA.gov is the U.S. Government's official Web portal to all Federal, state and local government Web resources and services.
Facebook
NWS on Facebook

Important Change Regarding the AAWU Web Presence

 

Over the last several months, the AAWU has been working to navigate its webpages to a nationally supported server. Security, as well as other needs, have necessitated the change.  In the process, we have made an effort to enhance the functionality of our website, as well as some of our products. As of June 20, 2017, aawu.arh.noaa.gov will be discontinued. The new AAWU web address is weather.gov/aawu. It is now live and will run in-parallel with the old site until it is discontinued. Please send any feedback or questions regarding the new webpages to nws.ar.aawu.webauthors@noaa.gov.  Thank you for your patience during this time of transition.
AAWU Home :: Display TAF Add Bookmark
METAR PAHL 242156Z AUTO 15009G16KT 10SM -RA OVC028 08/05 A2962 RMK
 AO2 SLP038 P0001 T00780050=

METAR PAHL 242256Z AUTO 17005KT 10SM -RA OVC024 08/06 A2961 RMK AO2
     SLP036 P0002 T00780061=

METAR PAHL 242356Z AUTO 18009G15KT 10SM -RA SCT021 BKN027 OVC040
 08/06 A2960 RMK AO2 SLP033 P0003 60011 T00830061 10083 20061
 58009=

SPECI PAHL 250009Z AUTO 18011G17KT 10SM -RA FEW021 SCT033 OVC042 08/06
     A2960 RMK AO2 P0000=

METAR PAHL 250056Z AUTO 19009KT 10SM -RA FEW019 BKN042 OVC050 08/06
 A2960 RMK AO2 SLP034 P0000 T00780056=

SPECI PAHL 250103Z AUTO 18008KT 10SM -RA SCT019 BKN026 OVC050 08/06
     A2960 RMK AO2 P0000=

SPECI PAHL 250132Z AUTO 17011KT 10SM SCT019 SCT027 BKN060 09/05 A2959
     RMK AO2 RAE15 P0000=

PAHL 250156Z AUTO 18008KT 10SM BKN015 BKN055 BKN085 09/04 A2959
     RMK AO2 RAE15 SLP029 P0000 T00940044=

SPECI PAHL 250232Z AUTO 20012G17KT 10SM BKN031 OVC037 09/03 A2960 RMK
     AO2=

METAR PAHL 250256Z AUTO 20009KT 10SM BKN033 OVC070 09/03 A2960 RMK AO2
     SLP034 60000 T00940033 53001=


NOAA's National Weather Service
Alaska Aviation Weather Unit
6930 Sand Lake Road
Anchorage, AK 99502-1845
Disclaimer
Credits
Glossary
Privacy Policy
About Us
Career Opportunities
Contact AAWU Internet Services Site last modified: April, 17th 2012